If you wish to contribute or participate in the discussions about articles you are invited to join SKYbrary as a registered user

 Actions

Villacoublay-Vélizy (BA 107) Air Base

From SKYbrary Wiki

LFPV
Airport
ICAO: LFPV
Summary
Name Villacoublay-Vélizy (BA 107) Air Base
Region Europe
Territory France FR.gif
Location , Ile-de-France
Serving Villacoublay
Elevation 178.003 m
584 ft
584 ft178.003 m
Type medium airport
Coordinates 48° 46' 27.86" N, 2° 12' 5.53" E
Runways
Designator Length Width Surface ROPS
9/27 1813 m5,948.163 ft
45 m147.638 ft
ASP /


METAR
Observation LFPV 171830Z AUTO 19009KT 9999 FEW011 BKN060 BKN078 14/13 Q1010 TEMPO 3000 SHRA BKN014TCU
Station Villacoublay
Date/Time 17 October 2019 18:30:00
Wind direction 190°
Wind speed 09 kts
Lowest cloud amount few clouds
Temperature 14°C
Dew point 13°C
Humidity 93%
QNH 1010 hPa
Weather condition n/a